MUCM/CMW METAR and TAF weather

Enter ICAO airport designator
Station Type Date Time Source
MUCM METAR 2022/12/04 05:50 UTC NOAA

MUCM 040550Z 01007KT 9000 FEW018 21/19 Q1018


Station Type Date Time Source
MUCM Decoded METAR 2022/12/04 05:50 UTC NOAA

Camaguey Aeropuerto, Cuba (MUCM) 21-25N 077-51W 118M
Dec 04, 2022 - 12:50 AM EST / 2022.12.04 0550 UTC
Wind: from the N (010 degrees) at 8 MPH (7 KT):0
Visibility: 5 mile(s):0
Sky conditions: mostly clear
Temperature: 69 F (21 C)
Dew Point: 66 F (19 C)
Relative Humidity: 88%
Pressure (altimeter): 30.06 in. Hg (1018 hPa)
ob: MUCM 040550Z 01007KT 9000 FEW018 21/19 Q1018
cycle: 6

Station Type Date Time Source
MUCM TAF 2022/12/04 06:07 UTC NOAA

TAF MUCM 040500Z 0406/0506 02005KT 9000 SCT020
BECMG 0415/0417 04015KT
BECMG 0503/0505 VRB03KT

Example: see airport list